Time;durP1;ratioP1;P1;durP2;ratioP2;P2;SDS_P1;SDS_P2;PMS_P1;PMS_P2;Temp;Humidity;BMP_temperature;BMP_pressure;BME280_temperature;BME280_humidity;BME280_pressure;Samples;Min_cycle;Max_cycle;Signal;HPM_P1;HPM_P2
2021/10/24 00:01:43;;;;;;;7.25;6.57;;;2.90;99.90;;;;;;471443;250;27560;-75
2021/10/24 00:03:44;;;;;;;8.93;6.93;;;2.90;99.90;;;;;;472640;250;27504;-75
2021/10/24 00:05:45;;;;;;;6.47;5.97;;;2.80;99.90;;;;;;473442;251;27563;-75
2021/10/24 00:07:47;;;;;;;9.80;7.62;;;2.80;99.90;;;;;;473541;251;27541;-74
2021/10/24 00:09:49;;;;;;;7.55;6.85;;;2.80;99.90;;;;;;473465;251;27727;-75
2021/10/24 00:11:49;;;;;;;6.75;6.15;;;2.80;99.90;;;;;;473486;251;27572;-75
2021/10/24 00:13:50;;;;;;;6.65;6.15;;;2.80;99.90;;;;;;473545;251;27535;-74
2021/10/24 00:15:52;;;;;;;6.40;5.90;;;2.80;99.90;;;;;;473570;251;28031;-75
2021/10/24 00:17:53;;;;;;;6.00;5.50;;;2.70;99.90;;;;;;473539;251;27991;-75
2021/10/24 00:19:54;;;;;;;8.32;6.30;;;2.60;99.90;;;;;;473532;251;29107;-75
2021/10/24 00:21:55;;;;;;;6.95;6.25;;;2.60;99.90;;;;;;473584;251;28016;-75
2021/10/24 00:23:57;;;;;;;6.37;5.85;;;2.70;99.90;;;;;;473563;251;27575;-74
2021/10/24 00:25:58;;;;;;;7.10;6.43;;;2.60;99.90;;;;;;473521;251;27548;-74
2021/10/24 00:27:59;;;;;;;6.90;6.30;;;2.60;99.90;;;;;;473550;251;27576;-73
2021/10/24 00:30:00;;;;;;;7.82;6.60;;;2.70;99.90;;;;;;473560;250;27527;-74
2021/10/24 00:32:02;;;;;;;6.37;5.87;;;2.60;99.90;;;;;;473551;251;27563;-74
2021/10/24 00:34:03;;;;;;;7.12;6.53;;;2.50;99.90;;;;;;473527;251;27622;-74
2021/10/24 00:36:04;;;;;;;7.22;6.30;;;2.50;99.90;;;;;;473542;251;27577;-74
2021/10/24 00:38:05;;;;;;;6.15;5.55;;;2.40;99.90;;;;;;473545;251;27992;-75
2021/10/24 00:40:07;;;;;;;6.37;5.78;;;2.40;99.90;;;;;;473554;251;27538;-74
2021/10/24 00:42:08;;;;;;;6.65;6.15;;;2.40;99.90;;;;;;473555;251;27574;-74
2021/10/24 00:44:09;;;;;;;6.40;5.80;;;2.30;99.90;;;;;;473535;251;28047;-74
2021/10/24 00:46:10;;;;;;;6.10;5.57;;;2.20;99.90;;;;;;473611;251;28046;-74
2021/10/24 00:48:12;;;;;;;7.05;6.45;;;2.20;99.90;;;;;;473650;251;28080;-75
2021/10/24 00:50:13;;;;;;;7.32;6.62;;;2.20;99.90;;;;;;473623;251;27525;-74
2021/10/24 00:52:14;;;;;;;8.35;6.37;;;2.20;99.90;;;;;;473569;251;27554;-74
2021/10/24 00:54:15;;;;;;;6.22;5.62;;;2.30;99.90;;;;;;473450;248;27511;-74
2021/10/24 00:56:17;;;;;;;7.18;5.95;;;2.30;99.90;;;;;;473533;251;27607;-74
2021/10/24 00:58:18;;;;;;;7.18;6.47;;;2.30;99.90;;;;;;473515;251;27590;-74
2021/10/24 01:00:19;;;;;;;6.60;6.07;;;2.30;99.90;;;;;;473524;251;27654;-74
2021/10/24 01:02:21;;;;;;;6.95;6.43;;;2.20;99.90;;;;;;473461;251;27576;-75
2021/10/24 01:04:22;;;;;;;6.70;6.10;;;2.30;99.90;;;;;;473536;251;28694;-74
2021/10/24 01:06:23;;;;;;;6.70;6.00;;;2.30;99.90;;;;;;473574;251;27973;-74
2021/10/24 01:08:24;;;;;;;6.65;6.10;;;2.30;99.90;;;;;;473561;251;28118;-76
2021/10/24 01:10:25;;;;;;;6.20;5.62;;;2.30;99.90;;;;;;473608;251;28011;-75
2021/10/24 01:12:27;;;;;;;5.45;5.07;;;2.30;99.90;;;;;;473640;251;27659;-75
2021/10/24 01:14:28;;;;;;;7.55;5.65;;;2.30;99.90;;;;;;473685;251;27652;-75
2021/10/24 01:16:29;;;;;;;8.05;6.75;;;2.20;99.90;;;;;;473590;251;27590;-73
2021/10/24 01:18:30;;;;;;;6.55;5.95;;;2.10;99.90;;;;;;473576;251;27555;-74
2021/10/24 01:20:32;;;;;;;5.68;5.25;;;2.10;99.90;;;;;;473590;251;27583;-74
2021/10/24 01:22:33;;;;;;;5.95;5.37;;;2.10;99.90;;;;;;473551;251;27566;-74
2021/10/24 01:24:34;;;;;;;6.05;5.55;;;2.00;99.90;;;;;;473555;251;27920;-75
2021/10/24 01:26:35;;;;;;;5.87;5.43;;;2.00;99.90;;;;;;473573;251;27666;-75
2021/10/24 01:28:37;;;;;;;6.43;5.85;;;1.90;99.90;;;;;;473551;251;27551;-74
2021/10/24 01:30:38;;;;;;;5.55;5.07;;;2.00;99.90;;;;;;473535;251;27512;-74
2021/10/24 01:32:39;;;;;;;6.40;5.70;;;2.00;99.90;;;;;;473579;251;27579;-75
2021/10/24 01:34:40;;;;;;;7.97;5.12;;;2.00;99.90;;;;;;473580;251;27648;-75
2021/10/24 01:36:42;;;;;;;5.45;4.95;;;2.00;99.90;;;;;;473555;251;27532;-74
2021/10/24 01:38:43;;;;;;;5.40;4.90;;;1.90;99.90;;;;;;473528;251;27564;-75
2021/10/24 01:40:44;;;;;;;5.65;5.10;;;2.00;99.90;;;;;;473552;251;27523;-74
2021/10/24 01:42:45;;;;;;;4.70;4.30;;;2.00;99.90;;;;;;473572;251;27963;-74
2021/10/24 01:44:49;;;;;;;5.55;4.90;;;2.10;99.90;;;;;;473565;251;28062;-75
2021/10/24 01:46:48;;;;;;;5.47;5.07;;;2.10;99.90;;;;;;473399;251;28055;-74
2021/10/24 01:48:49;;;;;;;4.90;4.40;;;2.00;99.90;;;;;;473530;250;28054;-75
2021/10/24 01:50:50;;;;;;;4.90;4.47;;;2.10;99.90;;;;;;473601;251;27819;-74
2021/10/24 01:52:52;;;;;;;5.32;4.62;;;2.10;99.90;;;;;;473613;251;27590;-74
2021/10/24 01:54:53;;;;;;;4.25;3.95;;;2.10;99.90;;;;;;473593;251;27562;-74
2021/10/24 01:56:54;;;;;;;3.87;3.58;;;2.10;99.90;;;;;;473588;251;27506;-74
2021/10/24 01:58:55;;;;;;;4.75;4.28;;;2.00;99.90;;;;;;473556;251;27713;-75
2021/10/24 02:00:57;;;;;;;5.60;3.95;;;2.00;99.90;;;;;;473571;251;27995;-74
2021/10/24 02:02:59;;;;;;;4.40;4.00;;;1.90;99.90;;;;;;473607;251;27538;-74
2021/10/24 02:04:59;;;;;;;4.62;4.10;;;2.00;99.90;;;;;;473541;251;27685;-75
2021/10/24 02:07:00;;;;;;;4.72;4.32;;;2.00;99.90;;;;;;473552;251;27513;-74
2021/10/24 02:09:02;;;;;;;5.95;4.80;;;1.80;99.90;;;;;;473550;251;27610;-74
2021/10/24 02:11:03;;;;;;;4.00;3.70;;;1.80;99.90;;;;;;473550;251;28190;-75
2021/10/24 02:13:04;;;;;;;4.97;4.15;;;1.90;99.90;;;;;;473551;251;27980;-76
2021/10/24 02:15:05;;;;;;;5.25;4.15;;;2.00;99.90;;;;;;473516;251;28050;-75
2021/10/24 02:17:07;;;;;;;4.90;3.85;;;2.00;99.90;;;;;;473556;251;27978;-74
2021/10/24 02:19:08;;;;;;;3.97;3.50;;;2.10;99.90;;;;;;473545;251;27570;-74
2021/10/24 02:21:09;;;;;;;4.12;3.83;;;2.10;99.90;;;;;;473565;251;27574;-76
2021/10/24 02:23:11;;;;;;;4.03;3.70;;;2.10;99.90;;;;;;473564;251;27519;-75
2021/10/24 02:25:12;;;;;;;3.65;3.35;;;2.10;99.90;;;;;;473545;251;27571;-75
2021/10/24 02:27:13;;;;;;;3.85;3.45;;;2.10;99.90;;;;;;473533;251;27514;-74
2021/10/24 02:29:14;;;;;;;3.60;3.40;;;2.00;99.90;;;;;;473560;251;27532;-74
2021/10/24 02:31:15;;;;;;;3.40;3.20;;;2.00;99.90;;;;;;473539;251;27570;-75
2021/10/24 02:33:17;;;;;;;3.85;3.28;;;2.00;99.90;;;;;;473354;251;27572;-74
2021/10/24 02:35:20;;;;;;;4.85;3.80;;;1.90;99.90;;;;;;473482;251;27579;-74
2021/10/24 02:37:19;;;;;;;4.28;3.87;;;1.80;99.90;;;;;;473425;251;27554;-74
2021/10/24 02:39:20;;;;;;;4.65;4.25;;;1.70;99.90;;;;;;473570;251;28079;-74
2021/10/24 02:41:22;;;;;;;11.45;4.15;;;1.60;99.90;;;;;;473535;251;28022;-74
2021/10/24 02:43:23;;;;;;;4.28;3.62;;;1.60;99.90;;;;;;473568;251;28057;-74
2021/10/24 02:45:24;;;;;;;5.47;4.62;;;1.60;99.90;;;;;;473494;251;28062;-75
2021/10/24 02:47:25;;;;;;;4.00;3.70;;;1.60;99.90;;;;;;473547;251;27646;-75
2021/10/24 02:49:27;;;;;;;4.22;3.85;;;1.60;99.90;;;;;;473535;251;27598;-74
2021/10/24 02:51:28;;;;;;;3.97;3.67;;;1.50;99.90;;;;;;473543;251;27591;-75
2021/10/24 02:53:29;;;;;;;3.78;3.58;;;1.50;99.90;;;;;;473543;251;27550;-75
2021/10/24 02:55:30;;;;;;;4.20;3.40;;;1.60;99.90;;;;;;473524;251;27669;-74
2021/10/24 02:57:32;;;;;;;4.15;3.85;;;1.60;99.90;;;;;;473591;251;27602;-75
2021/10/24 02:59:33;;;;;;;4.35;3.95;;;1.70;99.90;;;;;;473550;251;27523;-75
2021/10/24 03:01:34;;;;;;;4.50;4.10;;;1.70;99.90;;;;;;473550;251;27577;-74
2021/10/24 03:03:35;;;;;;;3.53;3.25;;;1.80;99.90;;;;;;473549;251;27512;-74
2021/10/24 03:05:37;;;;;;;4.15;3.70;;;1.80;99.90;;;;;;473534;250;27547;-74
2021/10/24 03:07:38;;;;;;;4.57;4.07;;;1.80;99.90;;;;;;473559;251;28078;-75
2021/10/24 03:09:39;;;;;;;4.40;3.90;;;1.70;99.90;;;;;;473521;247;27984;-74
2021/10/24 03:11:41;;;;;;;4.62;4.30;;;1.70;99.90;;;;;;473522;251;28089;-74
2021/10/24 03:13:42;;;;;;;4.35;3.97;;;1.70;99.90;;;;;;473572;251;28225;-75
2021/10/24 03:15:43;;;;;;;4.37;4.00;;;1.70;99.90;;;;;;473935;248;27523;-74
2021/10/24 03:17:44;;;;;;;4.07;3.75;;;1.70;99.90;;;;;;477908;249;27542;-75
2021/10/24 03:19:46;;;;;;;5.05;4.55;;;1.70;99.90;;;;;;477856;248;27547;-74
2021/10/24 03:21:47;;;;;;;4.20;3.90;;;1.70;99.90;;;;;;477891;247;27447;-74
2021/10/24 03:23:48;;;;;;;4.78;4.40;;;1.70;99.90;;;;;;477935;248;27549;-74
2021/10/24 03:25:50;;;;;;;4.60;4.20;;;1.70;99.90;;;;;;477055;248;27447;-74
2021/10/24 03:27:51;;;;;;;4.10;3.80;;;1.70;99.90;;;;;;472246;251;27809;-75
2021/10/24 03:29:52;;;;;;;4.45;4.05;;;1.70;99.90;;;;;;472200;250;27451;-74
2021/10/24 03:31:53;;;;;;;4.35;3.95;;;1.70;99.90;;;;;;472209;251;27475;-74
2021/10/24 03:33:54;;;;;;;4.80;4.03;;;1.60;99.90;;;;;;472241;251;27469;-75
2021/10/24 03:35:56;;;;;;;3.85;3.55;;;1.60;99.90;;;;;;472234;251;27435;-74
2021/10/24 03:37:57;;;;;;;3.97;3.67;;;1.60;99.90;;;;;;472238;251;27938;-74
2021/10/24 03:39:58;;;;;;;4.25;3.85;;;1.60;99.90;;;;;;472204;251;28783;-74
2021/10/24 03:41:59;;;;;;;4.65;3.60;;;1.60;99.90;;;;;;472233;251;27941;-73
2021/10/24 03:44:01;;;;;;;3.65;3.40;;;1.50;99.90;;;;;;472227;250;27940;-74
2021/10/24 03:46:02;;;;;;;3.78;3.47;;;1.60;99.90;;;;;;472321;250;27427;-75
2021/10/24 03:48:03;;;;;;;3.40;3.10;;;1.60;99.90;;;;;;472256;251;27461;-74
2021/10/24 03:50:04;;;;;;;3.45;3.25;;;1.60;99.90;;;;;;472859;246;27417;-76
2021/10/24 03:52:06;;;;;;;3.78;3.50;;;1.60;99.90;;;;;;473519;246;27372;-75
2021/10/24 03:54:07;;;;;;;5.68;3.50;;;1.60;99.90;;;;;;471466;250;27672;-75
2021/10/24 03:56:08;;;;;;;3.53;3.22;;;1.50;99.90;;;;;;471429;249;27427;-75
2021/10/24 03:58:09;;;;;;;4.78;3.62;;;1.60;99.90;;;;;;471456;250;27629;-75
2021/10/24 04:00:11;;;;;;;3.30;3.03;;;1.60;99.90;;;;;;472766;246;27861;-75
2021/10/24 04:02:12;;;;;;;3.35;2.90;;;1.50;99.90;;;;;;476379;246;27551;-75
2021/10/24 04:04:13;;;;;;;3.83;3.10;;;1.50;99.90;;;;;;474238;250;27609;-75
2021/10/24 04:06:15;;;;;;;3.17;2.97;;;1.40;99.90;;;;;;471443;250;27949;-75
2021/10/24 04:08:16;;;;;;;3.67;3.45;;;1.40;99.90;;;;;;471652;246;27972;-76
2021/10/24 04:10:17;;;;;;;3.65;3.35;;;1.40;99.90;;;;;;471495;250;29073;-76
2021/10/24 04:12:18;;;;;;;3.55;3.35;;;1.40;99.90;;;;;;471387;249;28038;-78
2021/10/24 04:14:19;;;;;;;3.42;3.12;;;1.30;99.90;;;;;;471468;250;27544;-76
2021/10/24 04:16:21;;;;;;;4.05;3.47;;;1.20;99.90;;;;;;471471;250;27421;-75
2021/10/24 04:18:22;;;;;;;4.15;3.80;;;1.20;99.90;;;;;;471495;250;27537;-75
2021/10/24 04:20:23;;;;;;;4.35;3.83;;;1.20;99.90;;;;;;471471;249;27461;-76
2021/10/24 04:22:25;;;;;;;4.05;3.40;;;1.30;99.90;;;;;;471499;250;27414;-75
2021/10/24 04:24:26;;;;;;;4.90;4.50;;;1.30;99.90;;;;;;471480;250;27464;-74
2021/10/24 04:26:27;;;;;;;3.97;3.70;;;1.30;99.90;;;;;;471423;250;27437;-76
2021/10/24 04:28:28;;;;;;;4.65;4.00;;;1.30;99.90;;;;;;471499;250;27497;-74
2021/10/24 04:30:29;;;;;;;3.97;3.67;;;1.30;99.90;;;;;;471480;250;27468;-75
2021/10/24 04:32:31;;;;;;;3.85;3.55;;;1.30;99.90;;;;;;471461;250;27430;-75
2021/10/24 04:34:32;;;;;;;4.53;3.35;;;1.30;99.90;;;;;;471453;250;28185;-75
2021/10/24 04:36:33;;;;;;;3.47;3.25;;;1.30;99.90;;;;;;471437;250;28966;-76
2021/10/24 04:38:34;;;;;;;4.22;3.92;;;1.30;99.90;;;;;;471481;249;27886;-75
2021/10/24 04:40:36;;;;;;;4.85;3.60;;;1.30;99.90;;;;;;470928;237;29981;-75
2021/10/24 04:42:37;;;;;;;3.47;3.28;;;1.20;99.90;;;;;;460322;254;27637;-76
2021/10/24 04:44:38;;;;;;;3.90;3.60;;;1.10;99.90;;;;;;460350;258;27644;-75
2021/10/24 04:46:39;;;;;;;3.75;3.50;;;1.00;99.90;;;;;;460366;258;27593;-75
2021/10/24 04:48:41;;;;;;;3.92;3.62;;;1.00;99.90;;;;;;460374;258;27454;-75
2021/10/24 04:50:42;;;;;;;3.30;3.10;;;1.10;99.90;;;;;;460370;258;27514;-75
2021/10/24 04:52:43;;;;;;;3.87;3.58;;;1.20;99.90;;;;;;460355;254;27498;-75
2021/10/24 04:54:44;;;;;;;3.47;3.12;;;1.20;99.90;;;;;;460214;258;27607;-75
2021/10/24 04:56:46;;;;;;;3.85;3.55;;;1.20;99.90;;;;;;460344;254;27922;-75
2021/10/24 04:58:47;;;;;;;4.10;3.70;;;1.10;99.90;;;;;;460364;258;27570;-75
2021/10/24 05:00:48;;;;;;;3.65;3.35;;;1.00;99.90;;;;;;460318;258;27614;-75
2021/10/24 05:02:49;;;;;;;4.03;3.72;;;1.00;99.90;;;;;;460333;258;27934;-76
2021/10/24 05:04:51;;;;;;;3.55;3.25;;;1.00;99.90;;;;;;460312;258;27991;-75
2021/10/24 05:06:52;;;;;;;4.20;3.80;;;1.00;99.90;;;;;;460348;258;28103;-75
2021/10/24 05:08:53;;;;;;;4.28;3.87;;;0.90;99.90;;;;;;460352;257;27922;-74
2021/10/24 05:10:54;;;;;;;3.70;3.40;;;0.90;99.90;;;;;;460293;258;27601;-76
2021/10/24 05:12:56;;;;;;;3.95;3.60;;;0.90;99.90;;;;;;460341;258;27559;-75
2021/10/24 05:14:57;;;;;;;3.70;3.40;;;0.90;99.90;;;;;;460348;258;27494;-75
2021/10/24 05:16:58;;;;;;;3.70;3.40;;;1.00;99.90;;;;;;460319;258;27537;-76
2021/10/24 05:18:59;;;;;;;3.35;3.15;;;1.00;99.90;;;;;;460336;258;27557;-75
2021/10/24 05:21:01;;;;;;;3.72;3.33;;;1.00;99.90;;;;;;460328;258;27615;-76
2021/10/24 05:23:02;;;;;;;3.55;3.25;;;0.90;99.90;;;;;;460370;256;27490;-73
2021/10/24 05:25:03;;;;;;;5.05;3.50;;;0.80;99.90;;;;;;460337;258;27479;-73
2021/10/24 05:27:04;;;;;;;3.60;3.30;;;0.80;99.90;;;;;;460339;258;27514;-74
2021/10/24 05:29:06;;;;;;;3.78;3.47;;;0.70;99.90;;;;;;460347;258;27574;-74
2021/10/24 05:31:07;;;;;;;4.90;4.50;;;0.70;99.90;;;;;;460327;257;28003;-73
2021/10/24 05:33:08;;;;;;;6.82;5.43;;;0.70;99.90;;;;;;460358;257;28069;-72
2021/10/24 05:35:09;;;;;;;6.70;6.10;;;0.70;99.90;;;;;;460341;258;27999;-73
2021/10/24 05:37:11;;;;;;;7.55;6.90;;;0.70;99.90;;;;;;460336;258;28002;-74
2021/10/24 05:39:12;;;;;;;7.53;6.93;;;0.50;99.90;;;;;;460338;258;27546;-73
2021/10/24 05:41:13;;;;;;;8.05;7.35;;;0.50;99.90;;;;;;460248;258;27602;-73
2021/10/24 05:43:14;;;;;;;8.40;7.60;;;0.50;99.90;;;;;;461210;258;27729;-73
2021/10/24 05:45:16;;;;;;;7.68;6.78;;;0.50;99.90;;;;;;461200;258;27565;-73
2021/10/24 05:47:17;;;;;;;7.72;7.10;;;0.50;99.90;;;;;;461123;258;27596;-73
2021/10/24 05:49:18;;;;;;;7.65;6.85;;;0.60;99.90;;;;;;461195;258;27647;-73
2021/10/24 05:51:19;;;;;;;7.95;7.12;;;0.60;99.90;;;;;;461209;258;27705;-74
2021/10/24 05:53:21;;;;;;;7.82;7.22;;;0.70;99.90;;;;;;461261;258;27608;-74
2021/10/24 05:55:22;;;;;;;7.10;6.50;;;0.70;99.90;;;;;;464006;253;27396;-73
2021/10/24 05:57:23;;;;;;;7.45;6.32;;;0.80;99.90;;;;;;461217;256;27704;-74
2021/10/24 05:59:24;;;;;;;6.70;6.10;;;0.80;99.90;;;;;;461233;258;27995;-72
2021/10/24 06:01:27;;;;;;;7.07;6.47;;;0.90;99.90;;;;;;467967;253;27874;-73
2021/10/24 06:03:27;;;;;;;6.68;6.18;;;0.90;99.90;;;;;;469933;253;28001;-74
2021/10/24 06:05:28;;;;;;;7.30;6.62;;;0.90;99.90;;;;;;470085;253;29145;-72
2021/10/24 06:07:32;;;;;;;6.90;6.03;;;1.00;99.90;;;;;;470079;253;27533;-73
2021/10/24 06:09:43;;;;;;;7.32;6.30;;;1.00;99.90;;;;;;470053;253;27526;-74
2021/10/24 06:11:47;;;;;;;7.12;6.50;;;1.00;99.90;;;;;;468792;253;27457;-71
2021/10/24 06:13:36;;;;;;;7.07;6.57;;;1.00;99.90;;;;;;469930;252;27486;-73
2021/10/24 06:15:39;;;;;;;8.50;7.70;;;1.00;99.90;;;;;;471313;252;27511;-74
2021/10/24 06:17:39;;;;;;;8.82;7.97;;;1.00;99.90;;;;;;468916;253;27494;-72
2021/10/24 06:19:41;;;;;;;10.15;8.30;;;1.00;99.90;;;;;;469025;253;27526;-73
2021/10/24 06:21:41;;;;;;;8.35;7.65;;;1.00;99.90;;;;;;468913;253;28031;-74
2021/10/24 06:23:43;;;;;;;7.43;6.72;;;1.00;99.90;;;;;;469025;253;27911;-73
2021/10/24 06:25:44;;;;;;;7.50;6.90;;;1.00;99.90;;;;;;468943;253;27961;-74
2021/10/24 06:27:45;;;;;;;7.65;7.05;;;0.90;99.90;;;;;;469036;253;28060;-73
2021/10/24 06:29:46;;;;;;;7.35;6.75;;;0.90;99.90;;;;;;469071;253;27518;-73
2021/10/24 06:31:48;;;;;;;6.35;5.85;;;0.90;99.90;;;;;;469034;253;27589;-74
2021/10/24 06:33:49;;;;;;;6.30;5.80;;;0.90;99.90;;;;;;469048;253;27482;-73
2021/10/24 06:35:50;;;;;;;6.25;5.65;;;0.90;99.90;;;;;;469025;253;27573;-76
2021/10/24 06:37:51;;;;;;;5.90;5.40;;;0.90;99.90;;;;;;468997;253;27466;-73
2021/10/24 06:39:53;;;;;;;5.65;5.15;;;0.90;99.90;;;;;;469086;253;27523;-71
2021/10/24 06:41:54;;;;;;;6.32;5.72;;;0.90;99.90;;;;;;469006;253;27485;-73
2021/10/24 06:43:55;;;;;;;7.20;5.60;;;0.90;99.90;;;;;;469023;253;27442;-73
2021/10/24 06:45:56;;;;;;;5.40;4.90;;;1.00;99.90;;;;;;468998;253;27458;-73
2021/10/24 06:47:58;;;;;;;5.03;4.62;;;0.90;99.90;;;;;;468981;253;28046;-74
2021/10/24 06:49:59;;;;;;;5.70;4.60;;;1.00;99.90;;;;;;469034;253;27978;-73
2021/10/24 06:52:05;;;;;;;6.15;5.00;;;1.10;99.90;;;;;;469042;253;28044;-73
2021/10/24 06:54:01;;;;;;;4.45;4.05;;;1.10;99.90;;;;;;468618;253;27940;-73
2021/10/24 06:56:03;;;;;;;5.10;4.25;;;1.20;99.90;;;;;;469629;253;27603;-72
2021/10/24 06:58:04;;;;;;;3.97;3.67;;;1.20;99.90;;;;;;469743;253;27466;-74
2021/10/24 07:00:05;;;;;;;4.43;3.85;;;1.30;99.90;;;;;;469791;253;27445;-72
2021/10/24 07:02:06;;;;;;;4.60;3.90;;;1.20;99.90;;;;;;469790;253;27482;-73
2021/10/24 07:04:11;;;;;;;4.62;4.22;;;1.20;99.90;;;;;;469772;253;27490;-73
2021/10/24 07:06:09;;;;;;;4.35;3.95;;;1.20;99.90;;;;;;469598;253;27494;-73
2021/10/24 07:08:10;;;;;;;5.60;4.07;;;1.20;99.90;;;;;;469577;253;27463;-74
2021/10/24 07:10:11;;;;;;;4.60;3.72;;;1.30;99.90;;;;;;469946;252;27579;-74
2021/10/24 07:12:13;;;;;;;5.75;4.45;;;1.40;99.90;;;;;;470412;252;27518;-75
2021/10/24 07:14:14;;;;;;;4.37;3.80;;;1.50;99.90;;;;;;470368;253;27479;-72
2021/10/24 07:16:15;;;;;;;3.90;3.60;;;1.60;99.90;;;;;;470433;252;27902;-73
2021/10/24 07:18:16;;;;;;;15.90;8.13;;;1.70;99.90;;;;;;470379;253;27973;-72
2021/10/24 07:20:18;;;;;;;13.88;6.55;;;1.80;99.90;;;;;;470352;252;27905;-71
2021/10/24 07:22:19;;;;;;;10.32;6.72;;;1.90;99.90;;;;;;470396;252;27581;-71
2021/10/24 07:24:20;;;;;;;12.95;6.72;;;2.00;99.90;;;;;;470371;252;27502;-74
2021/10/24 07:26:21;;;;;;;9.63;6.00;;;2.10;99.90;;;;;;470400;252;27584;-71
2021/10/24 07:28:23;;;;;;;11.77;6.53;;;2.10;99.90;;;;;;470397;253;27606;-72
2021/10/24 07:30:24;;;;;;;8.35;5.90;;;2.20;99.90;;;;;;470355;252;27490;-71
2021/10/24 07:32:25;;;;;;;6.32;5.60;;;2.30;99.90;;;;;;470421;252;27497;-72
2021/10/24 07:34:26;;;;;;;6.72;4.95;;;2.30;99.90;;;;;;470361;249;27485;-72
2021/10/24 07:36:28;;;;;;;6.40;5.03;;;2.40;99.90;;;;;;470233;249;27512;-72
2021/10/24 07:38:29;;;;;;;9.85;5.85;;;2.50;99.90;;;;;;470277;252;27950;-72
2021/10/24 07:40:30;;;;;;;5.32;4.65;;;2.60;99.90;;;;;;471404;252;27474;-72
2021/10/24 07:42:31;;;;;;;6.60;5.10;;;2.70;99.90;;;;;;462395;253;27521;-69
2021/10/24 07:44:33;;;;;;;6.62;4.60;;;2.80;99.90;;;;;;460831;257;27618;-70
2021/10/24 07:46:34;;;;;;;6.00;4.50;;;2.90;99.90;;;;;;469660;248;27506;-71
2021/10/24 07:48:35;;;;;;;5.03;4.05;;;3.00;99.90;;;;;;466429;255;27586;-72
2021/10/24 07:50:36;;;;;;;4.90;4.40;;;3.10;99.90;;;;;;466439;255;27945;-75
2021/10/24 07:52:38;;;;;;;4.82;4.40;;;3.20;99.90;;;;;;466413;255;27553;-72
2021/10/24 07:54:39;;;;;;;5.20;4.70;;;3.30;99.90;;;;;;466479;255;27701;-73
2021/10/24 07:56:40;;;;;;;6.72;4.60;;;3.50;99.90;;;;;;466418;255;27578;-73
2021/10/24 07:58:41;;;;;;;5.50;4.43;;;3.70;99.90;;;;;;466519;250;27581;-72
2021/10/24 08:00:43;;;;;;;5.50;4.03;;;3.80;99.90;;;;;;465077;254;28027;-73
2021/10/24 08:02:44;;;;;;;8.13;4.30;;;4.00;99.90;;;;;;458693;259;27951;-72
2021/10/24 08:04:45;;;;;;;5.90;4.47;;;4.20;99.90;;;;;;457297;258;28090;-73
2021/10/24 08:06:47;;;;;;;4.95;4.47;;;4.30;99.90;;;;;;458977;254;27467;-72
2021/10/24 08:08:48;;;;;;;3.67;3.37;;;4.30;99.90;;;;;;459042;254;27516;-72
2021/10/24 08:10:49;;;;;;;7.15;3.72;;;4.30;99.90;;;;;;458837;259;27543;-73
2021/10/24 08:12:50;;;;;;;3.75;3.45;;;4.40;99.90;;;;;;458991;258;27455;-72
2021/10/24 08:14:51;;;;;;;4.43;3.90;;;4.50;99.90;;;;;;454918;258;27631;-72
2021/10/24 08:16:53;;;;;;;6.82;3.72;;;4.50;99.90;;;;;;452141;263;27677;-71
2021/10/24 08:18:54;;;;;;;4.30;3.25;;;4.60;99.90;;;;;;451872;258;27653;-72
2021/10/24 08:20:55;;;;;;;7.65;3.55;;;4.80;99.90;;;;;;452238;263;27723;-74
2021/10/24 08:22:57;;;;;;;4.50;3.83;;;5.00;99.90;;;;;;452123;263;27602;-71
2021/10/24 08:24:58;;;;;;;6.90;3.65;;;5.00;99.90;;;;;;452129;263;28216;-72
2021/10/24 08:27:00;;;;;;;4.22;3.78;;;5.10;99.90;;;;;;452228;263;28179;-73
2021/10/24 08:29:00;;;;;;;3.50;3.20;;;5.10;99.90;;;;;;452165;263;28060;-72
2021/10/24 08:31:02;;;;;;;4.87;3.25;;;5.20;99.90;;;;;;452185;263;28266;-72
2021/10/24 08:33:03;;;;;;;4.82;3.15;;;5.20;99.90;;;;;;452182;263;27672;-71
2021/10/24 08:35:05;;;;;;;3.83;3.42;;;5.30;99.90;;;;;;452195;263;27593;-71
2021/10/24 08:37:05;;;;;;;3.72;3.42;;;5.30;99.90;;;;;;452112;263;27731;-74
2021/10/24 08:39:07;;;;;;;7.00;3.62;;;5.40;99.90;;;;;;452119;263;27574;-71
2021/10/24 08:41:08;;;;;;;5.03;3.50;;;5.40;99.90;;;;;;452146;263;27728;-71
2021/10/24 08:43:19;;;;;;;6.62;4.12;;;5.50;99.90;;;;;;452139;263;27657;-71
2021/10/24 08:45:11;;;;;;;3.62;2.85;;;5.70;99.90;;;;;;450779;263;27607;-71
2021/10/24 08:47:12;;;;;;;3.90;3.50;;;5.80;99.90;;;;;;452593;262;27534;-72
2021/10/24 08:49:13;;;;;;;4.78;3.72;;;5.70;99.90;;;;;;452576;262;27499;-71
2021/10/24 08:51:14;;;;;;;4.70;3.90;;;5.90;99.90;;;;;;452566;262;28177;-72
2021/10/24 08:53:15;;;;;;;4.32;3.75;;;6.00;99.90;;;;;;452630;262;28193;-71
2021/10/24 08:55:17;;;;;;;7.07;3.65;;;6.00;99.90;;;;;;452627;262;28017;-71
2021/10/24 08:57:18;;;;;;;4.35;3.95;;;6.00;99.90;;;;;;452640;262;27591;-71
2021/10/24 08:59:19;;;;;;;4.00;3.60;;;6.00;99.90;;;;;;452620;262;27517;-72
2021/10/24 09:01:20;;;;;;;5.45;3.90;;;6.10;99.90;;;;;;452583;262;27531;-71
2021/10/24 09:03:22;;;;;;;4.35;3.80;;;6.10;99.90;;;;;;452621;263;27544;-74
2021/10/24 09:05:23;;;;;;;4.87;3.83;;;6.20;99.90;;;;;;452649;262;27583;-71
2021/10/24 09:07:26;;;;;;;4.35;3.30;;;6.20;99.90;;;;;;452594;262;27598;-71
2021/10/24 09:09:26;;;;;;;7.00;3.87;;;6.30;99.90;;;;;;452484;262;27523;-71
2021/10/24 09:11:27;;;;;;;4.07;3.53;;;6.60;99.90;;;;;;452554;263;27530;-71
2021/10/24 09:13:28;;;;;;;5.60;3.33;;;6.70;99.90;;;;;;452634;262;28013;-74
2021/10/24 09:15:29;;;;;;;8.80;4.10;;;6.70;99.90;;;;;;452606;262;28021;-72
2021/10/24 09:17:31;;;;;;;6.05;4.53;;;6.90;99.90;;;;;;452666;262;27678;-71
2021/10/24 09:19:32;;;;;;;4.35;3.10;;;7.00;99.90;;;;;;452590;258;27550;-71
2021/10/24 09:21:33;;;;;;;4.07;3.55;;;6.90;99.90;;;;;;452606;262;27633;-71
2021/10/24 09:23:34;;;;;;;4.50;3.08;;;7.10;99.90;;;;;;452623;262;27541;-72
2021/10/24 09:25:35;;;;;;;4.00;3.60;;;6.90;99.90;;;;;;452650;262;27563;-71
2021/10/24 09:27:37;;;;;;;3.67;2.95;;;6.80;99.90;;;;;;452594;262;27538;-71
2021/10/24 09:29:38;;;;;;;3.10;2.80;;;6.80;99.90;;;;;;452532;263;28185;-71
2021/10/24 09:31:41;;;;;;;6.95;3.55;;;6.70;99.90;;;;;;452620;262;28167;-71
2021/10/24 09:33:40;;;;;;;5.80;2.90;;;7.10;99.90;;;;;;452549;262;27643;-73
2021/10/24 09:35:42;;;;;;;3.80;2.92;;;7.20;99.90;;;;;;452578;263;27547;-72
2021/10/24 09:37:43;;;;;;;3.65;3.30;;;7.40;99.90;;;;;;452590;262;27603;-72
2021/10/24 09:39:44;;;;;;;4.85;3.30;;;7.40;99.90;;;;;;452619;262;27976;-73
2021/10/24 09:41:45;;;;;;;6.40;3.55;;;7.60;99.90;;;;;;452613;262;27542;-72
2021/10/24 09:43:47;;;;;;;5.90;3.62;;;7.80;99.90;;;;;;452598;262;27530;-72
2021/10/24 09:45:48;;;;;;;6.93;3.72;;;7.90;99.90;;;;;;452577;262;28013;-72
2021/10/24 09:47:49;;;;;;;3.80;3.10;;;8.00;99.90;;;;;;452592;262;28135;-71
2021/10/24 09:49:50;;;;;;;3.00;2.70;;;7.90;99.90;;;;;;452610;263;27565;-76
2021/10/24 09:51:52;;;;;;;5.90;3.70;;;8.10;99.90;;;;;;452695;262;28701;-71
2021/10/24 09:53:56;;;;;;;4.85;3.58;;;8.20;99.90;;;;;;452621;262;29039;-73
2021/10/24 09:55:54;;;;;;;9.23;3.35;;;8.20;99.90;;;;;;452479;262;27851;-71
2021/10/24 09:57:56;;;;;;;7.07;3.67;;;8.30;99.90;;;;;;452648;263;27618;-72
2021/10/24 09:59:57;;;;;;;3.20;2.73;;;8.20;99.90;;;;;;452661;263;28071;-73
2021/10/24 10:01:58;;;;;;;3.47;2.67;;;8.40;99.90;;;;;;452648;262;28586;-71
2021/10/24 10:03:59;;;;;;;5.60;3.00;;;8.40;99.90;;;;;;452635;262;28624;-72
2021/10/24 10:06:00;;;;;;;2.75;2.55;;;8.50;99.90;;;;;;452626;262;30859;-71
2021/10/24 10:08:02;;;;;;;6.25;3.00;;;8.40;99.90;;;;;;452665;262;27579;-72
2021/10/24 10:10:03;;;;;;;4.10;3.00;;;8.50;99.90;;;;;;452634;263;27562;-72
2021/10/24 10:12:04;;;;;;;4.30;2.72;;;8.60;99.90;;;;;;452630;262;28036;-71
2021/10/24 10:14:05;;;;;;;3.93;2.30;;;8.60;99.90;;;;;;452614;258;27603;-72
2021/10/24 10:16:07;;;;;;;4.57;2.30;;;8.40;99.90;;;;;;452643;262;29313;-74
2021/10/24 10:18:08;;;;;;;2.47;2.23;;;8.30;99.90;;;;;;452645;262;27864;-72
2021/10/24 10:20:09;;;;;;;2.30;2.10;;;8.30;99.90;;;;;;452603;262;27996;-72
2021/10/24 10:22:10;;;;;;;2.53;1.90;;;8.30;99.90;;;;;;452670;262;27885;-72
2021/10/24 10:24:12;;;;;;;1.93;1.80;;;8.40;99.90;;;;;;452590;262;28278;-72
2021/10/24 10:26:13;;;;;;;2.37;1.93;;;8.30;99.90;;;;;;452655;263;28567;-72
2021/10/24 10:28:14;;;;;;;2.60;2.40;;;8.30;99.90;;;;;;452565;262;28430;-71
2021/10/24 10:30:17;;;;;;;3.30;2.20;;;8.60;99.90;;;;;;452551;262;29482;-71
2021/10/24 10:32:17;;;;;;;3.60;2.43;;;9.00;99.90;;;;;;452493;262;29359;-73
2021/10/24 10:34:18;;;;;;;4.07;2.70;;;9.00;99.90;;;;;;452577;262;27657;-72
2021/10/24 10:36:20;;;;;;;3.13;2.60;;;8.80;99.90;;;;;;452685;262;28001;-74
2021/10/24 10:38:20;;;;;;;3.10;2.80;;;9.00;99.90;;;;;;452189;259;28096;-72
2021/10/24 10:40:22;;;;;;;4.90;2.60;;;9.50;99.90;;;;;;451498;263;28160;-72